首页
METAR-TAF:

METAR-TAF

机场 :

贝济耶, 法国

纬度: 43-19N, 经度: 003-21E, 海拔: 17米

当前天气观测

该预报发布于28分钟前的01:00 UTC
风速4节,风向北转东北
温度 3°C
湿度 93%
气压 1005 hPa
能见度10公里或以上
1500米以下无云,无积雨云

METAR: LFMU 140100Z AUTO 02004KT CAVOK 03/02 Q1005

时间: 02:28 (01:28 UTC)

预报

该预报发布于11小时和28分钟前的14:00 UTC
预报有效从13日的 15点(UTC)到 14日的 15点(UTC)
风速20节,风向西北
能见度10公里或以上
1500米以下无云,无积雨云
成为
从 13日的 19点(UTC)到 13日的 20点(UTC)
风速5节,风向多变
短暂存在
从 13日的 23点(UTC)到 14日的 04点(UTC)
能見度: 4000
轻雾
成为
从 14日的 04点(UTC)到 14日的 06点(UTC)
多云层高于3000英尺
短暂存在
从 14日的 06点(UTC)到 14日的 13点(UTC)
风速10节,风向
多云层高于2000英尺
成为
从 14日的 13点(UTC)到 14日的 15点(UTC)

TAF: LFMU 131400Z 1315/1415 31020KT CAVOK BECMG 1319/1320 VRB05KT TEMPO 1323/1404 4000 BR NSC BECMG 1404/1406 BKN030 TEMPO 1406/1413 01010KT RA BKN020 BECMG 1413/1415 NSC

超过4000个机场的气象观测和天气预报(METAR&TAF报告)。

可查询的气象台以黄色和红色小点在地图上表示。

将鼠标移到小点上方,可查看气象台名称。

然后点击查看天气观测和预报。

如需切换地图:点击带黑十字的绿色按钮放大地图;点击带横线的绿色按钮缩小地图;或者点击绿色箭头查看邻近地区的地图。


METAR-TAF: